Spirit Of New York — WCW9332 — position and weather

sailwx.info

Track history (hours):
 
Tides and Currents Weather Stations Pressure Air Temp Water Temp Dewpoint Dewpoint Depression Visibility Wind Speed Wind Dir Waves Ship Positions

Spirit Of New York

Owner: SPIRIT CRUISES LLC, NEW YORK, NY. More information available from US FCC via Universal Licensing System and Coast Guard Vessel Documentation Center.

Last reported at 2018-Jan-23 05:27 UTC. Time now 2018-Jan-23 10:18 UTC.
Position N 40°45' W 074°01'.

Length 62 m; draft 2.7 m.

Type: Passenger vessel. MMSI: 338897000.

Date/timePositionNaut miles runAvg speedWind from/ knotsBaromVisibWave heightAir tempDewpointWater temp
2018-Jan-23 05:27N 40°45' W 074°01'1 1.8
2018-Jan-23 05:00N 40°44' W 074°01'3 5.8
2018-Jan-23 04:30N 40°41' W 074°02'3 6.3
2018-Jan-23 04:01N 40°44' W 074°01'1 1.1
2018-Jan-23 03:30N 40°45' W 074°01'0 0.0
2018-Jan-23 03:00N 40°45' W 074°01'0 0.0
2018-Jan-23 02:30N 40°45' W 074°01'0 0.0
2018-Jan-23 02:00N 40°45' W 074°01'0 0.0
2018-Jan-23 01:30N 40°45' W 074°01'0 0.0
2018-Jan-21 18:57N 40°45' W 074°01'1 3.4
2018-Jan-21 18:30N 40°44' W 074°01'2 4.6
2018-Jan-21 18:00N 40°41' W 074°02'2 3.3
2018-Jan-21 17:30N 40°43' W 074°01'2 4.1
2018-Jan-21 17:00N 40°45' W 074°01'0 0.0
2018-Jan-21 16:30N 40°45' W 074°01'0 0.0
2018-Jan-21 16:00N 40°45' W 074°01'  
Track history (hours):
 
Tides and Currents Weather Stations Pressure Air Temp Water Temp Dewpoint Dewpoint Depression Visibility Wind Speed Wind Dir Waves Ship Positions

Spirit Of New York

Owner: SPIRIT CRUISES LLC, NEW YORK, NY. More information available from US FCC via Universal Licensing System and Coast Guard Vessel Documentation Center.

Last reported at 2018-Jan-23 05:27 UTC. Time now 2018-Jan-23 10:18 UTC.
Position N 40°45' W 074°01'.

Length 62 m; draft 2.7 m.

Type: Passenger vessel. MMSI: 338897000.

Date/timePositionNaut miles runAvg speedWind from/ knotsBaromVisibWave heightAir tempDewpointWater temp
2018-Jan-23 05:27N 40°45' W 074°01'1 1.8
2018-Jan-23 05:00N 40°44' W 074°01'3 5.8
2018-Jan-23 04:30N 40°41' W 074°02'3 6.3
2018-Jan-23 04:01N 40°44' W 074°01'1 1.1
2018-Jan-23 03:30N 40°45' W 074°01'0 0.0
2018-Jan-23 03:00N 40°45' W 074°01'0 0.0
2018-Jan-23 02:30N 40°45' W 074°01'0 0.0
2018-Jan-23 02:00N 40°45' W 074°01'0 0.0
2018-Jan-23 01:30N 40°45' W 074°01'0 0.0
2018-Jan-21 18:57N 40°45' W 074°01'1 3.4
2018-Jan-21 18:30N 40°44' W 074°01'2 4.6
2018-Jan-21 18:00N 40°41' W 074°02'2 3.3
2018-Jan-21 17:30N 40°43' W 074°01'2 4.1
2018-Jan-21 17:00N 40°45' W 074°01'0 0.0
2018-Jan-21 16:30N 40°45' W 074°01'0 0.0
2018-Jan-21 16:00N 40°45' W 074°01'  

Dump ship's entire track history